Time;durP1;ratioP1;P1;durP2;ratioP2;P2;SDS_P1;SDS_P2;PMS_P1;PMS_P2;Temp;Humidity;BMP_temperature;BMP_pressure;BME280_temperature;BME280_humidity;BME280_pressure;Samples;Min_cycle;Max_cycle;Signal;HPM_P1;HPM_P2
2024/01/17 00:00:30;;;;;;;8.77;4.93;;;;;;;;;;5098656;28;20019;-73
2024/01/17 00:02:57;;;;;;;8.32;5.80;;;;;;;;;;5104831;28;20044;-73
2024/01/17 00:05:23;;;;;;;11.60;6.00;;;;;;;;;;5093246;28;20047;-73
2024/01/17 00:07:49;;;;;;;14.13;5.60;;;;;;;;;;5096426;28;20032;-72
2024/01/17 00:10:16;;;;;;;8.65;5.43;;;;;;;;;;5107933;28;20048;-72
2024/01/17 00:12:42;;;;;;;15.60;6.20;;;;;;;;;;5068806;28;20105;-72
2024/01/17 00:15:08;;;;;;;12.85;6.25;;;;;;;;;;5069014;28;20055;-72
2024/01/17 00:17:34;;;;;;;12.20;7.05;;;;;;;;;;5088956;28;20045;-72
2024/01/17 00:20:00;;;;;;;10.68;5.97;;;;;;;;;;5083853;28;20508;-72
2024/01/17 00:22:26;;;;;;;11.40;6.30;;;;;;;;;;5064598;28;20089;-72
2024/01/17 00:24:53;;;;;;;14.55;6.53;;;;;;;;;;5063702;28;20024;-72
2024/01/17 00:27:23;;;;;;;10.88;5.90;;;;;;;;;;5087245;28;20075;-72
2024/01/17 00:29:56;;;;;;;9.63;6.20;;;;;;;;;;5055884;28;20094;-73
2024/01/17 00:32:23;;;;;;;10.27;6.40;;;;;;;;;;5076183;28;20105;-73
2024/01/17 00:34:49;;;;;;;10.98;6.60;;;;;;;;;;5076893;28;20037;-73
2024/01/17 00:37:15;;;;;;;10.73;6.38;;;;;;;;;;5073186;28;20083;-73
2024/01/17 00:39:41;;;;;;;8.45;6.43;;;;;;;;;;5056428;28;20040;-73
2024/01/17 00:42:07;;;;;;;12.43;6.82;;;;;;;;;;5072937;28;20127;-73
2024/01/17 00:44:33;;;;;;;10.43;6.85;;;;;;;;;;5073490;28;20036;-73
2024/01/17 00:47:00;;;;;;;16.70;7.22;;;;;;;;;;5073493;28;20036;-73
2024/01/17 00:49:26;;;;;;;15.90;7.68;;;;;;;;;;5072559;28;20043;-73
2024/01/17 00:51:52;;;;;;;11.90;7.03;;;;;;;;;;5073087;28;20481;-73
2024/01/17 00:54:18;;;;;;;13.45;6.95;;;;;;;;;;5074169;28;20454;-73
2024/01/17 00:56:44;;;;;;;14.35;6.65;;;;;;;;;;5056629;28;20040;-73
2024/01/17 00:59:10;;;;;;;12.73;7.18;;;;;;;;;;5082519;28;20036;-73
2024/01/17 01:01:36;;;;;;;17.58;7.88;;;;;;;;;;5063952;28;20076;-73
2024/01/17 01:04:02;;;;;;;10.70;6.63;;;;;;;;;;5057203;28;20041;-73
2024/01/17 01:06:28;;;;;;;12.93;7.32;;;;;;;;;;5072889;28;20040;-73
2024/01/17 01:08:54;;;;;;;13.00;6.95;;;;;;;;;;5072192;28;20059;-73
2024/01/17 01:11:21;;;;;;;14.20;7.20;;;;;;;;;;5072533;28;20041;-73
2024/01/17 01:13:47;;;;;;;11.38;7.82;;;;;;;;;;5072487;28;20058;-73
2024/01/17 01:16:13;;;;;;;16.17;7.10;;;;;;;;;;5072753;28;20044;-73
2024/01/17 01:18:45;;;;;;;13.40;7.32;;;;;;;;;;5072335;28;20044;-73
2024/01/17 01:21:11;;;;;;;22.75;8.57;;;;;;;;;;5072049;28;20365;-73
2024/01/17 01:23:37;;;;;;;12.55;6.78;;;;;;;;;;5072157;28;20036;-73
2024/01/17 01:26:03;;;;;;;10.50;6.95;;;;;;;;;;5055662;28;20032;-73
2024/01/17 01:28:29;;;;;;;11.70;6.88;;;;;;;;;;5081380;28;20043;-73
2024/01/17 01:30:55;;;;;;;13.20;7.45;;;;;;;;;;5080986;28;20071;-73
2024/01/17 01:33:22;;;;;;;11.80;7.38;;;;;;;;;;5081906;28;20046;-73
2024/01/17 01:35:48;;;;;;;12.45;7.15;;;;;;;;;;5083584;28;20044;-73
2024/01/17 01:38:14;;;;;;;13.00;7.13;;;;;;;;;;5072334;28;20037;-73
2024/01/17 01:40:41;;;;;;;11.90;7.25;;;;;;;;;;5077780;28;20040;-73
2024/01/17 01:43:23;;;;;;;12.02;6.85;;;;;;;;;;5085165;28;20040;-73
2024/01/17 01:46:13;;;;;;;14.15;7.18;;;;;;;;;;5055409;28;20397;-73
2024/01/17 01:48:40;;;;;;;11.77;6.75;;;;;;;;;;5069428;28;20408;-73
2024/01/17 01:51:06;;;;;;;11.65;6.97;;;;;;;;;;5071841;28;20043;-73
2024/01/17 01:53:33;;;;;;;11.30;6.95;;;;;;;;;;5076991;28;20036;-73
2024/01/17 01:55:59;;;;;;;11.45;7.20;;;;;;;;;;5084182;28;20051;-73
2024/01/17 01:58:26;;;;;;;16.20;7.05;;;;;;;;;;5072578;28;20043;-73
2024/01/17 02:00:56;;;;;;;12.45;7.55;;;;;;;;;;5071304;28;20074;-73
2024/01/17 02:03:24;;;;;;;12.18;7.00;;;;;;;;;;5077266;28;20488;-73
2024/01/17 02:05:50;;;;;;;12.65;7.43;;;;;;;;;;5074107;28;20094;-73
2024/01/17 02:08:16;;;;;;;11.90;7.03;;;;;;;;;;5091904;28;20147;-73
2024/01/17 02:10:42;;;;;;;15.80;7.65;;;;;;;;;;5075302;28;20044;-73
2024/01/17 02:13:09;;;;;;;14.68;7.43;;;;;;;;;;5090861;28;20100;-73
2024/01/17 02:15:35;;;;;;;15.35;7.47;;;;;;;;;;5092063;28;20044;-73
2024/01/17 02:18:01;;;;;;;16.73;7.68;;;;;;;;;;5074669;28;20315;-73
2024/01/17 02:20:27;;;;;;;18.75;8.30;;;;;;;;;;5071437;28;20087;-73
2024/01/17 02:22:53;;;;;;;13.55;8.13;;;;;;;;;;5082398;28;20511;-73
2024/01/17 02:25:19;;;;;;;13.13;8.13;;;;;;;;;;5071862;28;20052;-73
2024/01/17 02:27:45;;;;;;;12.02;7.90;;;;;;;;;;5071452;28;20037;-73
2024/01/17 02:30:14;;;;;;;16.55;7.93;;;;;;;;;;5071960;28;20393;-73
2024/01/17 02:32:40;;;;;;;14.25;8.98;;;;;;;;;;5073119;28;20063;-73
2024/01/17 02:35:06;;;;;;;11.95;7.93;;;;;;;;;;5091948;28;20040;-73
2024/01/17 02:37:33;;;;;;;19.05;9.02;;;;;;;;;;5084754;28;20042;-73
2024/01/17 02:39:59;;;;;;;15.40;8.65;;;;;;;;;;5071415;28;20041;-73
2024/01/17 02:42:25;;;;;;;11.77;7.43;;;;;;;;;;5054555;28;20041;-73
2024/01/17 02:44:51;;;;;;;13.95;8.75;;;;;;;;;;5071302;28;20442;-73
2024/01/17 02:47:17;;;;;;;15.95;9.30;;;;;;;;;;5071424;28;20408;-72
2024/01/17 02:49:43;;;;;;;16.02;8.52;;;;;;;;;;5054975;28;20041;-73
2024/01/17 02:52:09;;;;;;;15.02;9.57;;;;;;;;;;5054457;28;20040;-72
2024/01/17 02:54:35;;;;;;;19.95;9.98;;;;;;;;;;5071261;28;20397;-72
2024/01/17 02:57:01;;;;;;;17.13;10.40;;;;;;;;;;5038388;28;20049;-73
2024/01/17 02:59:27;;;;;;;15.45;8.65;;;;;;;;;;5072220;28;20560;-72
2024/01/17 03:01:53;;;;;;;14.23;9.00;;;;;;;;;;5070836;28;20044;-73
2024/01/17 03:04:19;;;;;;;20.35;10.32;;;;;;;;;;5054773;28;20036;-72
2024/01/17 03:06:49;;;;;;;15.20;10.02;;;;;;;;;;5054592;28;20329;-72
2024/01/17 03:09:15;;;;;;;15.20;9.07;;;;;;;;;;5073630;28;20052;-72
2024/01/17 03:11:41;;;;;;;17.70;9.75;;;;;;;;;;5042105;28;20488;-73
2024/01/17 03:14:07;;;;;;;18.00;9.75;;;;;;;;;;5048807;28;20052;-73
2024/01/17 03:16:35;;;;;;;16.70;9.63;;;;;;;;;;5059476;28;20052;-73
2024/01/17 03:19:01;;;;;;;15.90;10.30;;;;;;;;;;5084677;28;20051;-73
2024/01/17 03:21:28;;;;;;;20.13;9.77;;;;;;;;;;5075976;28;20036;-72
2024/01/17 03:23:54;;;;;;;19.05;10.13;;;;;;;;;;5074684;28;20040;-73
2024/01/17 03:26:21;;;;;;;17.42;9.70;;;;;;;;;;5090327;28;20482;-73
2024/01/17 03:28:47;;;;;;;15.25;10.00;;;;;;;;;;5091102;28;20040;-73
2024/01/17 03:31:13;;;;;;;17.73;10.55;;;;;;;;;;5101747;28;20047;-73
2024/01/17 03:33:39;;;;;;;17.27;10.32;;;;;;;;;;5103150;28;20054;-72
2024/01/17 03:36:06;;;;;;;13.82;10.13;;;;;;;;;;5095466;28;20078;-72
2024/01/17 03:38:32;;;;;;;17.65;10.80;;;;;;;;;;5095056;28;20032;-73
2024/01/17 03:41:00;;;;;;;19.27;11.30;;;;;;;;;;5094867;28;20118;-73
2024/01/17 03:43:27;;;;;;;18.92;10.57;;;;;;;;;;5090476;28;20049;-73
2024/01/17 03:45:57;;;;;;;17.15;10.57;;;;;;;;;;5071133;28;20036;-72
2024/01/17 03:48:23;;;;;;;14.10;10.43;;;;;;;;;;5083191;28;20042;-73
2024/01/17 03:50:49;;;;;;;19.77;10.20;;;;;;;;;;5080829;28;20555;-72
2024/01/17 03:53:15;;;;;;;17.42;10.38;;;;;;;;;;5082293;28;20040;-72
2024/01/17 03:55:41;;;;;;;18.08;11.20;;;;;;;;;;5083496;28;20042;-72
2024/01/17 03:58:07;;;;;;;19.27;11.02;;;;;;;;;;5064864;28;20045;-73
2024/01/17 04:00:34;;;;;;;18.52;11.18;;;;;;;;;;5076945;28;20127;-72
2024/01/17 04:03:00;;;;;;;14.18;9.82;;;;;;;;;;5075830;28;20515;-73
2024/01/17 04:05:26;;;;;;;16.55;11.27;;;;;;;;;;5081620;28;20096;-72
2024/01/17 04:07:52;;;;;;;19.63;11.23;;;;;;;;;;5074243;28;20032;-73
2024/01/17 04:10:18;;;;;;;16.65;10.30;;;;;;;;;;5056639;28;20048;-72
2024/01/17 04:12:44;;;;;;;17.60;10.63;;;;;;;;;;5080144;28;20036;-72
2024/01/17 04:15:11;;;;;;;17.27;10.75;;;;;;;;;;5069199;28;20040;-72
2024/01/17 04:17:37;;;;;;;19.05;10.98;;;;;;;;;;5076380;28;20036;-72
2024/01/17 04:20:05;;;;;;;20.95;11.13;;;;;;;;;;5082832;28;20127;-73
2024/01/17 04:22:32;;;;;;;16.58;10.88;;;;;;;;;;5088953;28;20036;-73
2024/01/17 04:24:58;;;;;;;21.92;11.13;;;;;;;;;;5074782;28;20044;-73
2024/01/17 04:27:24;;;;;;;18.35;11.15;;;;;;;;;;5073740;28;20032;-72
2024/01/17 04:29:50;;;;;;;18.13;11.13;;;;;;;;;;5062426;28;20044;-73
2024/01/17 04:32:16;;;;;;;23.27;11.25;;;;;;;;;;5084309;28;20036;-73
2024/01/17 04:34:42;;;;;;;20.17;10.88;;;;;;;;;;5056729;28;20040;-73
2024/01/17 04:37:08;;;;;;;18.15;11.38;;;;;;;;;;5083891;28;20035;-73
2024/01/17 04:39:34;;;;;;;19.35;10.98;;;;;;;;;;5088850;28;20045;-73
2024/01/17 04:42:01;;;;;;;18.10;10.40;;;;;;;;;;5064153;28;20405;-73
2024/01/17 04:44:30;;;;;;;20.30;10.73;;;;;;;;;;5074568;28;20032;-73
2024/01/17 04:46:57;;;;;;;20.23;10.60;;;;;;;;;;5071984;28;20108;-73
2024/01/17 04:49:27;;;;;;;20.75;11.77;;;;;;;;;;5075964;28;20028;-72
2024/01/17 04:51:54;;;;;;;20.63;10.95;;;;;;;;;;5076678;28;20412;-72
2024/01/17 04:54:20;;;;;;;19.55;11.40;;;;;;;;;;5073592;28;20337;-73
2024/01/17 04:56:46;;;;;;;15.52;10.63;;;;;;;;;;5089630;28;20046;-72
2024/01/17 04:59:12;;;;;;;18.35;10.73;;;;;;;;;;5080364;28;20036;-73
2024/01/17 05:01:38;;;;;;;22.52;11.55;;;;;;;;;;5060049;28;20036;-72
2024/01/17 05:04:05;;;;;;;18.77;11.52;;;;;;;;;;5078641;28;20500;-73
2024/01/17 05:06:32;;;;;;;17.33;11.25;;;;;;;;;;5089590;28;20035;-73
2024/01/17 05:08:59;;;;;;;22.90;11.82;;;;;;;;;;5087307;28;20045;-73
2024/01/17 05:11:27;;;;;;;23.13;11.55;;;;;;;;;;5072093;28;20048;-72
2024/01/17 05:13:53;;;;;;;18.75;12.30;;;;;;;;;;5067095;28;20032;-73
2024/01/17 05:16:19;;;;;;;19.50;12.40;;;;;;;;;;5096721;28;20135;-73
2024/01/17 05:18:45;;;;;;;18.15;11.43;;;;;;;;;;5072461;28;20039;-73
2024/01/17 05:21:11;;;;;;;21.27;12.52;;;;;;;;;;5087450;28;20040;-73
2024/01/17 05:23:38;;;;;;;20.77;13.00;;;;;;;;;;5078605;28;20123;-72
2024/01/17 05:26:05;;;;;;;19.88;11.48;;;;;;;;;;5077797;28;20349;-73
2024/01/17 05:28:31;;;;;;;20.83;12.20;;;;;;;;;;5087626;28;20032;-72
2024/01/17 05:30:57;;;;;;;18.63;12.05;;;;;;;;;;5087114;28;20400;-73
2024/01/17 05:33:23;;;;;;;20.42;12.13;;;;;;;;;;5100570;28;20426;-73
2024/01/17 05:35:49;;;;;;;21.70;12.30;;;;;;;;;;5077391;28;20115;-72
2024/01/17 05:38:15;;;;;;;18.45;12.48;;;;;;;;;;5055535;28;20063;-73
2024/01/17 05:40:41;;;;;;;21.75;12.30;;;;;;;;;;5086705;28;20040;-73
2024/01/17 05:43:08;;;;;;;18.25;12.63;;;;;;;;;;5089501;28;20040;-73
2024/01/17 05:45:34;;;;;;;21.23;12.40;;;;;;;;;;5063866;28;20129;-73
2024/01/17 05:48:01;;;;;;;20.30;11.93;;;;;;;;;;5088133;28;20044;-72
2024/01/17 05:50:27;;;;;;;22.10;12.82;;;;;;;;;;5064287;28;20078;-73
2024/01/17 05:52:53;;;;;;;23.23;12.82;;;;;;;;;;5075017;28;20090;-72
2024/01/17 05:55:20;;;;;;;20.65;11.50;;;;;;;;;;5077031;28;20091;-73
2024/01/17 05:57:46;;;;;;;20.83;12.43;;;;;;;;;;5064436;28;20043;-73
2024/01/17 06:00:12;;;;;;;20.63;12.48;;;;;;;;;;5078114;28;20059;-72
2024/01/17 06:02:39;;;;;;;21.33;12.25;;;;;;;;;;5052448;28;20048;-73
2024/01/17 06:05:05;;;;;;;22.02;12.60;;;;;;;;;;5079968;28;20044;-73
2024/01/17 06:07:32;;;;;;;22.23;12.15;;;;;;;;;;5078088;28;20448;-73
2024/01/17 06:09:58;;;;;;;19.55;12.00;;;;;;;;;;5074623;28;20071;-72
2024/01/17 06:12:24;;;;;;;23.45;12.43;;;;;;;;;;5063270;28;20123;-72
2024/01/17 06:14:50;;;;;;;18.27;11.13;;;;;;;;;;5066887;28;20048;-74
2024/01/17 06:17:16;;;;;;;26.63;12.45;;;;;;;;;;5076163;28;20490;-72
2024/01/17 06:19:42;;;;;;;19.70;12.02;;;;;;;;;;5081043;28;21369;-72
2024/01/17 06:22:09;;;;;;;25.75;13.40;;;;;;;;;;5089448;28;20069;-72
2024/01/17 06:24:35;;;;;;;21.83;11.70;;;;;;;;;;5056248;28;20032;-72
2024/01/17 06:27:02;;;;;;;19.20;12.05;;;;;;;;;;5069471;28;20029;-73
2024/01/17 06:29:30;;;;;;;23.25;11.98;;;;;;;;;;5056057;28;20036;-73
2024/01/17 06:31:56;;;;;;;19.60;12.27;;;;;;;;;;5071753;28;20044;-72
2024/01/17 06:34:22;;;;;;;18.85;11.57;;;;;;;;;;5057651;28;20492;-72
2024/01/17 06:36:48;;;;;;;24.77;12.55;;;;;;;;;;5083197;28;20040;-72
2024/01/17 06:39:17;;;;;;;20.17;12.00;;;;;;;;;;5081450;28;20032;-73
2024/01/17 06:41:44;;;;;;;19.95;13.02;;;;;;;;;;5063930;28;20036;-73
2024/01/17 06:44:11;;;;;;;21.25;11.90;;;;;;;;;;5098408;28;20032;-73
2024/01/17 06:46:37;;;;;;;20.60;12.02;;;;;;;;;;5078416;28;20044;-73
2024/01/17 06:49:03;;;;;;;24.25;12.70;;;;;;;;;;5064180;28;20032;-72
2024/01/17 06:51:29;;;;;;;23.40;12.20;;;;;;;;;;5065649;28;20040;-73
2024/01/17 06:53:56;;;;;;;27.58;12.15;;;;;;;;;;5087954;28;20040;-73
2024/01/17 06:56:22;;;;;;;22.40;12.60;;;;;;;;;;5080211;28;20516;-73
2024/01/17 06:58:48;;;;;;;23.65;12.73;;;;;;;;;;5062408;28;20040;-72
2024/01/17 07:01:14;;;;;;;18.88;10.93;;;;;;;;;;5094712;28;20039;-72
2024/01/17 07:03:40;;;;;;;23.08;13.15;;;;;;;;;;5087755;28;20477;-73
2024/01/17 07:06:06;;;;;;;21.60;12.85;;;;;;;;;;5059238;28;20044;-73
2024/01/17 07:08:32;;;;;;;20.23;12.15;;;;;;;;;;5100208;28;20048;-73
2024/01/17 07:10:58;;;;;;;20.00;12.25;;;;;;;;;;5099870;28;20024;-73
2024/01/17 07:13:26;;;;;;;21.42;12.35;;;;;;;;;;5083201;28;20043;-73
2024/01/17 07:15:52;;;;;;;21.17;13.10;;;;;;;;;;5085721;28;20090;-74
2024/01/17 07:18:18;;;;;;;19.95;11.57;;;;;;;;;;5109237;28;20040;-74
2024/01/17 07:20:44;;;;;;;23.42;12.45;;;;;;;;;;5086608;28;20040;-74
2024/01/17 07:23:10;;;;;;;22.10;12.98;;;;;;;;;;5093146;28;20036;-74
2024/01/17 07:25:38;;;;;;;19.77;12.23;;;;;;;;;;5096198;28;20043;-75
2024/01/17 07:28:05;;;;;;;21.08;12.63;;;;;;;;;;5101284;28;20036;-74
2024/01/17 07:30:31;;;;;;;21.95;12.15;;;;;;;;;;5077106;28;20092;-74
2024/01/17 07:32:57;;;;;;;29.00;12.82;;;;;;;;;;5063011;28;20051;-74
2024/01/17 07:35:23;;;;;;;20.88;12.38;;;;;;;;;;5093187;28;20036;-74
2024/01/17 07:37:50;;;;;;;27.02;12.63;;;;;;;;;;5072799;28;20071;-74
2024/01/17 07:40:17;;;;;;;24.80;13.05;;;;;;;;;;5081017;28;20083;-74
2024/01/17 07:42:43;;;;;;;29.33;12.75;;;;;;;;;;5059960;28;20113;-74
2024/01/17 07:45:10;;;;;;;25.45;13.00;;;;;;;;;;5067065;28;20485;-74
2024/01/17 07:47:37;;;;;;;21.23;11.65;;;;;;;;;;5076262;28;20051;-74
2024/01/17 07:50:03;;;;;;;22.15;11.27;;;;;;;;;;5091741;28;20036;-74
2024/01/17 07:52:29;;;;;;;21.77;11.90;;;;;;;;;;5064774;28;20040;-72
2024/01/17 07:54:55;;;;;;;22.63;12.15;;;;;;;;;;5077950;28;20036;-72
2024/01/17 07:57:21;;;;;;;23.85;12.75;;;;;;;;;;5063148;28;20036;-72
2024/01/17 07:59:47;;;;;;;20.65;12.32;;;;;;;;;;5084152;28;20446;-72
2024/01/17 08:02:13;;;;;;;22.27;12.35;;;;;;;;;;5092091;28;20471;-71
2024/01/17 08:04:42;;;;;;;19.00;11.95;;;;;;;;;;5056587;28;20483;-73
2024/01/17 08:07:09;;;;;;;21.27;12.70;;;;;;;;;;5082990;28;20476;-73
2024/01/17 08:09:36;;;;;;;21.50;12.90;;;;;;;;;;5064301;28;20447;-73
2024/01/17 08:12:03;;;;;;;20.90;12.82;;;;;;;;;;5073812;28;20481;-73
2024/01/17 08:14:29;;;;;;;19.48;12.73;;;;;;;;;;5058837;28;20067;-73
2024/01/17 08:16:55;;;;;;;20.70;12.85;;;;;;;;;;5065148;28;20502;-73
2024/01/17 08:19:22;;;;;;;24.02;13.32;;;;;;;;;;5091269;28;20039;-73
2024/01/17 08:21:49;;;;;;;23.52;11.80;;;;;;;;;;5071847;28;20063;-73
2024/01/17 08:24:15;;;;;;;26.70;12.98;;;;;;;;;;5079637;28;20040;-73
2024/01/17 08:26:41;;;;;;;20.73;12.07;;;;;;;;;;5058372;28;20564;-73
2024/01/17 08:29:07;;;;;;;18.50;11.70;;;;;;;;;;5078795;28;20075;-73
2024/01/17 08:31:33;;;;;;;22.98;12.85;;;;;;;;;;5057269;28;20032;-72
2024/01/17 08:34:00;;;;;;;23.45;13.38;;;;;;;;;;5069956;28;20032;-72
2024/01/17 08:36:30;;;;;;;24.58;13.40;;;;;;;;;;5068419;28;20046;-73
2024/01/17 08:38:56;;;;;;;23.58;13.43;;;;;;;;;;5068565;28;20069;-72
2024/01/17 08:41:22;;;;;;;21.92;11.77;;;;;;;;;;5077516;28;20060;-73
2024/01/17 08:43:48;;;;;;;19.05;12.50;;;;;;;;;;5085233;28;20129;-72
2024/01/17 08:46:15;;;;;;;26.45;12.77;;;;;;;;;;5080569;28;20488;-73
2024/01/17 08:48:41;;;;;;;27.90;12.32;;;;;;;;;;5082123;28;20074;-78
2024/01/17 08:51:08;;;;;;;20.77;11.82;;;;;;;;;;5087986;28;20064;-78
2024/01/17 08:53:37;;;;;;;21.50;12.50;;;;;;;;;;5063540;28;20460;-73
2024/01/17 08:56:05;;;;;;;23.50;13.30;;;;;;;;;;5046155;28;20387;-74
2024/01/17 08:58:34;;;;;;;21.80;11.98;;;;;;;;;;5077575;28;20033;-73
2024/01/17 09:01:02;;;;;;;21.58;12.25;;;;;;;;;;5076168;28;20070;-73
2024/01/17 09:03:29;;;;;;;20.83;13.23;;;;;;;;;;5088395;28;20040;-73
2024/01/17 09:05:55;;;;;;;22.10;11.98;;;;;;;;;;5077067;28;20079;-73
2024/01/17 09:08:21;;;;;;;20.63;12.13;;;;;;;;;;5066852;28;20067;-73
2024/01/17 09:10:47;;;;;;;25.55;12.82;;;;;;;;;;5072498;28;20048;-73
2024/01/17 09:13:14;;;;;;;21.80;12.25;;;;;;;;;;5055660;28;20033;-73
2024/01/17 09:15:40;;;;;;;17.45;11.75;;;;;;;;;;5056230;28;20381;-73
2024/01/17 09:18:07;;;;;;;22.38;11.57;;;;;;;;;;5055347;28;20106;-73
2024/01/17 09:20:33;;;;;;;19.23;12.65;;;;;;;;;;5055347;28;20504;-73
2024/01/17 09:22:59;;;;;;;20.50;11.77;;;;;;;;;;5055393;28;20044;-73
2024/01/17 09:25:25;;;;;;;15.85;11.50;;;;;;;;;;5072173;28;20029;-72
2024/01/17 09:27:51;;;;;;;19.52;12.55;;;;;;;;;;5072526;28;20036;-73
2024/01/17 09:30:18;;;;;;;21.23;11.30;;;;;;;;;;5072176;28;20507;-72
2024/01/17 09:32:47;;;;;;;22.98;12.70;;;;;;;;;;5072024;28;20131;-72
2024/01/17 09:35:13;;;;;;;24.75;12.02;;;;;;;;;;5064282;28;20504;-74
2024/01/17 09:37:39;;;;;;;20.30;11.75;;;;;;;;;;5053388;28;20077;-75
2024/01/17 09:40:06;;;;;;;23.35;11.38;;;;;;;;;;5055953;28;20052;-75
2024/01/17 09:42:35;;;;;;;23.90;12.18;;;;;;;;;;5072311;28;20044;-75
2024/01/17 09:45:02;;;;;;;20.70;11.18;;;;;;;;;;5072382;28;20071;-75
2024/01/17 09:47:31;;;;;;;22.50;11.85;;;;;;;;;;5055813;28;20481;-75
2024/01/17 09:49:58;;;;;;;25.63;12.30;;;;;;;;;;5072315;28;20040;-75
2024/01/17 09:52:24;;;;;;;22.48;12.32;;;;;;;;;;5072214;28;20047;-75
2024/01/17 09:54:51;;;;;;;19.25;11.98;;;;;;;;;;5056061;28;20467;-74
2024/01/17 09:57:22;;;;;;;19.63;10.98;;;;;;;;;;5055596;28;20094;-74
2024/01/17 09:59:59;;;;;;;17.15;10.80;;;;;;;;;;5072398;28;20040;-74
2024/01/17 10:02:27;;;;;;;18.52;11.50;;;;;;;;;;5072228;28;20036;-74
2024/01/17 10:04:54;;;;;;;23.05;12.52;;;;;;;;;;5072098;28;20230;-74
2024/01/17 10:07:20;;;;;;;17.73;12.00;;;;;;;;;;5072313;28;20047;-74
2024/01/17 10:09:46;;;;;;;19.05;11.30;;;;;;;;;;5072184;28;20057;-74
2024/01/17 10:12:19;;;;;;;18.05;11.38;;;;;;;;;;5072117;28;20129;-74
2024/01/17 10:14:45;;;;;;;22.75;12.23;;;;;;;;;;5056436;28;20045;-74
2024/01/17 10:17:11;;;;;;;20.23;10.60;;;;;;;;;;5080227;28;20044;-74
2024/01/17 10:19:37;;;;;;;17.20;11.07;;;;;;;;;;5071583;28;20047;-74
2024/01/17 10:22:06;;;;;;;17.67;10.52;;;;;;;;;;5072129;28;20481;-74
2024/01/17 10:24:32;;;;;;;20.77;11.38;;;;;;;;;;5071959;28;20139;-74
2024/01/17 10:27:02;;;;;;;16.25;10.30;;;;;;;;;;5087636;28;20042;-74
2024/01/17 10:29:30;;;;;;;16.70;10.10;;;;;;;;;;5093197;28;20040;-74
2024/01/17 10:31:59;;;;;;;18.27;11.02;;;;;;;;;;5076140;28;20043;-74
2024/01/17 10:34:29;;;;;;;16.05;10.02;;;;;;;;;;5074839;28;20048;-75
2024/01/17 10:36:55;;;;;;;20.85;10.13;;;;;;;;;;5092956;28;20071;-75
2024/01/17 10:39:21;;;;;;;17.67;10.90;;;;;;;;;;5093391;28;20048;-75
2024/01/17 10:41:54;;;;;;;18.88;9.50;;;;;;;;;;5081065;28;20515;-75
2024/01/17 10:44:26;;;;;;;15.55;9.95;;;;;;;;;;5111230;28;20036;-75
2024/01/17 10:46:53;;;;;;;15.65;10.60;;;;;;;;;;5090993;28;20036;-74
2024/01/17 10:49:19;;;;;;;17.13;9.95;;;;;;;;;;5075581;28;20146;-73
2024/01/17 10:52:09;;;;;;;16.60;10.00;;;;;;;;;;5095255;28;20028;-74
2024/01/17 10:54:49;;;;;;;18.08;9.77;;;;;;;;;;5083504;28;20079;-74
2024/01/17 10:57:16;;;;;;;16.98;9.90;;;;;;;;;;5088603;28;20074;-74
2024/01/17 10:59:43;;;;;;;16.50;9.77;;;;;;;;;;5073511;28;20040;-74
2024/01/17 11:02:16;;;;;;;15.13;9.85;;;;;;;;;;5099144;28;20025;-74
2024/01/17 11:04:45;;;;;;;17.65;9.15;;;;;;;;;;5087781;28;20041;-74
2024/01/17 11:07:11;;;;;;;15.70;9.60;;;;;;;;;;5087844;28;20059;-73
2024/01/17 11:09:38;;;;;;;14.02;9.38;;;;;;;;;;5063043;28;20056;-73
2024/01/17 11:12:05;;;;;;;19.70;9.70;;;;;;;;;;5088108;28;20089;-72
2024/01/17 11:14:33;;;;;;;21.27;9.20;;;;;;;;;;5066998;28;20037;-73
2024/01/17 11:17:03;;;;;;;17.08;9.75;;;;;;;;;;5078405;28;20536;-72
2024/01/17 11:19:31;;;;;;;22.08;9.95;;;;;;;;;;5085254;28;20423;-72
2024/01/17 11:21:58;;;;;;;16.10;9.13;;;;;;;;;;5083265;28;20040;-73
2024/01/17 11:24:24;;;;;;;13.93;9.55;;;;;;;;;;5079124;28;20033;-74
2024/01/17 11:27:04;;;;;;;17.58;9.60;;;;;;;;;;5092899;28;20039;-73
2024/01/17 11:29:33;;;;;;;15.40;9.23;;;;;;;;;;5061287;28;20055;-73
2024/01/17 11:32:12;;;;;;;18.85;9.68;;;;;;;;;;5092213;28;20035;-73
2024/01/17 11:34:38;;;;;;;15.05;8.75;;;;;;;;;;5066005;28;20033;-73
2024/01/17 11:37:04;;;;;;;16.35;9.32;;;;;;;;;;5080215;28;20036;-78
2024/01/17 11:39:30;;;;;;;20.27;9.77;;;;;;;;;;5061499;28;20047;-71
2024/01/17 11:41:56;;;;;;;14.68;9.43;;;;;;;;;;5073264;28;20047;-72
2024/01/17 11:44:23;;;;;;;19.98;9.68;;;;;;;;;;5057674;28;20043;-72
2024/01/17 11:46:51;;;;;;;18.50;9.35;;;;;;;;;;5074172;28;20044;-72
2024/01/17 11:49:27;;;;;;;17.27;9.73;;;;;;;;;;5085998;28;20051;-72
2024/01/17 11:51:53;;;;;;;21.58;10.85;;;;;;;;;;5082012;28;20042;-72
2024/01/17 11:54:19;;;;;;;15.65;9.25;;;;;;;;;;5083053;28;20054;-72
2024/01/17 11:56:46;;;;;;;17.05;9.45;;;;;;;;;;5068797;28;20046;-72
2024/01/17 11:59:16;;;;;;;19.92;9.95;;;;;;;;;;5084028;28;20047;-72
2024/01/17 12:01:43;;;;;;;16.27;10.05;;;;;;;;;;5079552;28;20036;-72
2024/01/17 12:04:13;;;;;;;18.30;9.98;;;;;;;;;;5081736;28;20039;-72
2024/01/17 12:06:47;;;;;;;18.40;10.32;;;;;;;;;;5079137;28;20047;-72
2024/01/17 12:09:20;;;;;;;17.15;9.82;;;;;;;;;;5079402;28;20040;-72
2024/01/17 12:11:47;;;;;;;23.60;11.18;;;;;;;;;;5076263;28;20485;-72
2024/01/17 12:14:14;;;;;;;17.73;10.40;;;;;;;;;;5066668;28;20044;-72
2024/01/17 12:16:40;;;;;;;20.67;10.20;;;;;;;;;;5084986;28;20051;-72
2024/01/17 12:19:06;;;;;;;22.52;11.18;;;;;;;;;;5093705;28;20119;-72
2024/01/17 12:21:32;;;;;;;18.48;10.50;;;;;;;;;;5077040;28;20047;-72
2024/01/17 12:23:58;;;;;;;19.42;9.82;;;;;;;;;;5086950;28;20028;-72
2024/01/17 12:26:24;;;;;;;19.83;10.30;;;;;;;;;;5078782;28;20040;-72
2024/01/17 12:28:51;;;;;;;17.10;9.73;;;;;;;;;;5073775;28;20494;-72
2024/01/17 12:31:17;;;;;;;18.92;9.52;;;;;;;;;;5077959;28;20033;-73
2024/01/17 12:33:43;;;;;;;15.40;9.88;;;;;;;;;;5074151;28;20051;-73
2024/01/17 12:36:09;;;;;;;16.20;9.13;;;;;;;;;;5074479;28;20036;-73
2024/01/17 12:38:36;;;;;;;21.63;10.75;;;;;;;;;;5076157;28;20047;-73
2024/01/17 12:41:07;;;;;;;15.90;9.40;;;;;;;;;;5088441;28;20111;-73
2024/01/17 12:43:34;;;;;;;17.73;9.98;;;;;;;;;;5073282;28;20048;-73
2024/01/17 12:46:01;;;;;;;24.38;10.52;;;;;;;;;;5058195;28;20119;-72
2024/01/17 12:48:27;;;;;;;19.02;10.27;;;;;;;;;;5073063;28;20040;-73
2024/01/17 12:50:58;;;;;;;18.77;10.77;;;;;;;;;;5063229;28;20036;-73
2024/01/17 12:53:28;;;;;;;20.02;10.27;;;;;;;;;;5086135;28;20509;-73
2024/01/17 12:55:55;;;;;;;16.42;9.48;;;;;;;;;;5084810;28;20032;-73
2024/01/17 12:58:22;;;;;;;19.25;9.40;;;;;;;;;;5056373;28;20503;-73
2024/01/17 13:00:49;;;;;;;19.67;9.73;;;;;;;;;;5073668;28;20059;-73
2024/01/17 13:03:16;;;;;;;21.38;10.30;;;;;;;;;;5076149;28;20036;-73
2024/01/17 13:05:42;;;;;;;17.08;10.05;;;;;;;;;;5080458;28;20036;-73
2024/01/17 13:08:16;;;;;;;17.25;9.93;;;;;;;;;;5068198;28;20516;-73
2024/01/17 13:10:43;;;;;;;17.77;9.45;;;;;;;;;;5056457;28;20117;-73
2024/01/17 13:13:09;;;;;;;20.98;11.40;;;;;;;;;;5057239;28;20545;-73
2024/01/17 13:15:39;;;;;;;19.85;10.00;;;;;;;;;;5072388;28;20040;-73
2024/01/17 13:18:08;;;;;;;13.68;9.70;;;;;;;;;;5073415;28;20087;-73
2024/01/17 13:20:34;;;;;;;19.77;10.98;;;;;;;;;;5085912;28;20161;-73
2024/01/17 13:23:01;;;;;;;18.17;10.23;;;;;;;;;;5056765;28;20039;-73
2024/01/17 13:25:27;;;;;;;23.38;11.02;;;;;;;;;;5072904;28;20037;-73
2024/01/17 13:28:02;;;;;;;18.65;10.88;;;;;;;;;;5063118;28;20127;-73
2024/01/17 13:30:34;;;;;;;22.50;10.25;;;;;;;;;;5089451;28;20396;-73
2024/01/17 13:33:00;;;;;;;19.98;10.68;;;;;;;;;;5098717;28;20045;-73
2024/01/17 13:35:26;;;;;;;21.67;10.40;;;;;;;;;;5074396;28;20040;-73
2024/01/17 13:37:52;;;;;;;18.88;10.35;;;;;;;;;;5074230;28;20439;-73
2024/01/17 13:40:20;;;;;;;20.83;10.63;;;;;;;;;;5076271;28;20134;-73
2024/01/17 13:42:46;;;;;;;19.35;10.68;;;;;;;;;;5071697;28;20040;-73
2024/01/17 13:45:12;;;;;;;17.45;9.75;;;;;;;;;;5085392;28;20683;-73
2024/01/17 13:47:40;;;;;;;18.35;10.45;;;;;;;;;;5085789;28;20481;-73
2024/01/17 13:50:16;;;;;;;15.55;9.77;;;;;;;;;;5055228;28;20505;-73
2024/01/17 13:52:47;;;;;;;22.48;10.13;;;;;;;;;;5056817;28;20053;-73
2024/01/17 13:55:14;;;;;;;18.48;10.57;;;;;;;;;;5066240;28;20146;-73
2024/01/17 13:57:40;;;;;;;21.35;10.00;;;;;;;;;;5059416;28;20040;-72
2024/01/17 14:00:06;;;;;;;18.10;11.18;;;;;;;;;;5088916;28;20131;-72
2024/01/17 14:02:32;;;;;;;17.17;10.05;;;;;;;;;;5090288;28;20044;-79
2024/01/17 14:04:58;;;;;;;18.35;10.30;;;;;;;;;;5088659;28;20483;-72
2024/01/17 14:07:24;;;;;;;20.55;10.48;;;;;;;;;;5080836;28;20036;-72
2024/01/17 14:09:51;;;;;;;18.33;10.48;;;;;;;;;;5091597;28;20051;-71
2024/01/17 14:12:17;;;;;;;19.42;10.60;;;;;;;;;;5076550;28;20047;-73
2024/01/17 14:14:43;;;;;;;15.65;10.10;;;;;;;;;;5061283;28;20043;-73
2024/01/17 14:17:09;;;;;;;18.10;11.00;;;;;;;;;;5089210;28;20055;-73
2024/01/17 14:19:36;;;;;;;19.85;11.00;;;;;;;;;;5077485;28;20499;-73